Hubbard, Oregon
Current Conditions -  °F | °C
As of 8:53 AM on Wednesday 26 Nov 2014 (Local Time) from KUAO Reporting Station
Overcast Overcast  
Wind Chill: 56°   Ceiling: 4400
Heat Index: 56°   Visibility: 10mi
Dew Point: 51°   Wind: 3mph
Humidity: 84%   Direction: 10°N
Pressure: 30.18"   Gusts: NA
Location:  45.18°N, 122.81°W
Report Text: KUAO 261653Z AUTO 01003KT 10SM OVC044 13/11 A3018 RMK AO2 SLP220 T01330106
Loading
Personal Weather Stations






























Interactive Weather Map New forecast layout! Learn more

10-Day Weather Forecast

Advertisements
Track Severe Weather on mobile